createdAt,value
2022-09-03T00:00:17.729Z,20.60
2022-09-03T00:03:34.596Z,20.50
2022-09-03T00:06:21.178Z,20.47
2022-09-03T00:09:07.848Z,19.98
2022-09-03T00:11:50.888Z,20.06
2022-09-03T00:14:35.241Z,20.11
2022-09-03T00:17:08.017Z,20.01
2022-09-03T00:19:44.876Z,20.09
2022-09-03T00:22:19.250Z,20.17
2022-09-03T00:24:50.461Z,20.16
2022-09-03T00:27:22.944Z,20.41
2022-09-03T00:30:04.401Z,20.36
2022-09-03T00:33:07.149Z,20.41
2022-09-03T00:35:45.005Z,20.49
2022-09-03T00:38:13.915Z,20.21
2022-09-03T00:41:19.172Z,20.31
2022-09-03T00:44:26.644Z,20.34
2022-09-03T00:47:34.027Z,20.19
2022-09-03T00:50:35.317Z,20.26
2022-09-03T00:53:15.658Z,20.11
2022-09-03T00:56:04.183Z,19.76
2022-09-03T00:58:52.032Z,19.81
2022-09-03T01:01:43.968Z,19.79
2022-09-03T01:04:45.200Z,20.15
2022-09-03T01:07:19.222Z,19.99
2022-09-03T01:10:28.711Z,19.59
2022-09-03T01:13:14.036Z,19.46
2022-09-03T01:16:24.937Z,19.46
2022-09-03T01:18:56.307Z,19.73
2022-09-03T01:22:03.535Z,19.67
2022-09-03T01:25:03.572Z,19.69
2022-09-03T01:28:13.849Z,19.88
2022-09-03T01:30:49.669Z,19.89
2022-09-03T01:33:48.977Z,19.82
2022-09-03T01:36:32.349Z,19.99
2022-09-03T01:39:09.058Z,19.86
2022-09-03T01:42:20.814Z,19.11
2022-09-03T01:45:31.383Z,19.45
2022-09-03T01:48:38.221Z,19.85
2022-09-03T01:51:15.797Z,19.53
2022-09-03T01:54:17.938Z,19.65
2022-09-03T01:57:35.493Z,19.87
2022-09-03T02:00:13.370Z,19.72
2022-09-03T02:02:43.700Z,19.59
2022-09-03T02:05:29.844Z,19.70
2022-09-03T02:08:06.929Z,19.93
2022-09-03T02:10:46.001Z,19.89
2022-09-03T02:13:18.878Z,19.92
2022-09-03T02:15:50.860Z,19.91
2022-09-03T02:18:31.069Z,19.70
2022-09-03T02:21:03.499Z,19.80
2022-09-03T02:23:31.528Z,20.05
2022-09-03T02:26:02.996Z,19.70
2022-09-03T02:28:33.085Z,20.02
2022-09-03T02:31:01.285Z,19.88
2022-09-03T02:33:36.928Z,19.80
2022-09-03T02:36:09.715Z,20.01
2022-09-03T02:38:38.468Z,20.07
2022-09-03T02:41:08.162Z,19.87
2022-09-03T02:43:56.302Z,19.80
2022-09-03T02:46:34.074Z,19.87
2022-09-03T02:49:02.310Z,19.90
2022-09-03T02:51:36.576Z,19.51
2022-09-03T02:54:07.076Z,19.50
2022-09-03T02:56:35.767Z,19.57
2022-09-03T02:59:05.947Z,19.75
2022-09-03T03:01:36.032Z,19.74
2022-09-03T03:04:05.411Z,19.41
2022-09-03T03:06:33.546Z,19.30
2022-09-03T03:09:06.160Z,19.31
2022-09-03T03:11:34.692Z,19.26
2022-09-03T03:14:03.825Z,19.85
2022-09-03T03:16:32.949Z,19.84
2022-09-03T03:19:01.377Z,19.88
2022-09-03T03:21:31.165Z,19.93
2022-09-03T03:24:02.129Z,19.93
2022-09-03T03:26:30.253Z,19.84
2022-09-03T03:29:01.120Z,19.52
2022-09-03T03:31:31.790Z,20.02
2022-09-03T03:34:03.648Z,19.78
2022-09-03T03:36:33.386Z,19.69
2022-09-03T03:39:02.979Z,19.87
2022-09-03T03:41:33.953Z,19.60
2022-09-03T03:44:06.430Z,19.71
2022-09-03T03:46:41.240Z,19.81
2022-09-03T03:49:10.584Z,19.81
2022-09-03T03:51:43.244Z,19.84
2022-09-03T03:54:12.304Z,20.10
2022-09-03T03:56:55.662Z,19.97
2022-09-03T03:59:24.651Z,19.85
2022-09-03T04:01:56.802Z,19.96
2022-09-03T04:04:25.748Z,20.17
2022-09-03T04:06:55.842Z,20.18
2022-09-03T04:09:23.665Z,20.45
2022-09-03T04:11:56.500Z,19.95
2022-09-03T04:14:28.074Z,20.07
2022-09-03T04:16:57.162Z,20.01
2022-09-03T04:19:25.447Z,20.18
2022-09-03T04:21:54.701Z,20.14
2022-09-03T04:24:24.248Z,20.00
2022-09-03T04:26:54.245Z,20.06
2022-09-03T04:29:23.249Z,19.86
2022-09-03T04:32:09.766Z,20.11
2022-09-03T04:34:38.424Z,20.06
2022-09-03T04:37:06.444Z,19.91
2022-09-03T04:39:35.707Z,19.85
2022-09-03T04:42:04.501Z,19.93
2022-09-03T04:44:34.656Z,20.16
2022-09-03T04:47:04.114Z,20.22
2022-09-03T04:49:34.869Z,20.32
2022-09-03T04:52:04.816Z,20.41
2022-09-03T04:54:34.612Z,20.53
2022-09-03T04:57:07.479Z,20.34
2022-09-03T04:59:42.997Z,20.27
2022-09-03T05:02:11.439Z,20.28
2022-09-03T05:04:40.584Z,20.45
2022-09-03T05:07:09.183Z,20.57
2022-09-03T05:09:38.603Z,20.61
2022-09-03T05:12:09.030Z,20.29
2022-09-03T05:14:37.217Z,20.58
2022-09-03T05:17:06.683Z,20.79
2022-09-03T05:19:36.268Z,20.83
2022-09-03T05:22:04.426Z,21.01
2022-09-03T05:24:33.238Z,21.24
2022-09-03T05:27:03.760Z,21.26
2022-09-03T05:29:33.150Z,21.40
2022-09-03T05:32:01.363Z,21.65
2022-09-03T05:34:32.928Z,21.48
2022-09-03T05:37:01.593Z,21.76
2022-09-03T05:39:31.153Z,21.86
2022-09-03T05:42:27.192Z,21.76
2022-09-03T05:45:01.005Z,21.51
2022-09-03T05:47:29.428Z,21.64
2022-09-03T05:49:59.007Z,21.75
2022-09-03T05:52:27.644Z,21.85
2022-09-03T05:55:00.237Z,21.73
2022-09-03T06:06:22.196Z,22.34
2022-09-03T06:09:09.285Z,22.56
2022-09-03T06:17:56.275Z,23.15
2022-09-03T06:20:36.917Z,23.31
2022-09-03T06:23:10.241Z,23.33
2022-09-03T06:34:59.496Z,23.83
2022-09-03T06:37:44.315Z,23.67
2022-09-03T06:40:14.029Z,23.61
2022-09-03T06:42:45.925Z,23.66
2022-09-03T06:45:17.154Z,23.53
2022-09-03T06:47:45.572Z,23.63
2022-09-03T06:50:15.723Z,23.52
2022-09-03T06:52:44.328Z,23.51
2022-09-03T06:55:13.188Z,23.51
2022-09-03T06:57:42.730Z,23.56
2022-09-03T07:00:12.010Z,23.61
2022-09-03T07:02:44.891Z,23.71
2022-09-03T07:05:15.225Z,23.78
2022-09-03T07:07:44.836Z,23.76
2022-09-03T07:10:16.713Z,23.84
2022-09-03T07:12:45.321Z,23.95
2022-09-03T07:15:14.337Z,24.30
2022-09-03T07:17:44.365Z,24.38
2022-09-03T07:20:13.546Z,24.46
2022-09-03T07:22:41.273Z,24.66
2022-09-03T07:25:11.872Z,24.64
2022-09-03T07:27:42.469Z,24.53
2022-09-03T07:30:11.282Z,24.73
2022-09-03T07:32:41.427Z,24.78
2022-09-03T07:35:10.361Z,24.96
2022-09-03T07:37:43.263Z,25.08
2022-09-03T07:40:12.321Z,24.99
2022-09-03T07:42:41.646Z,25.08
2022-09-03T07:45:10.895Z,25.12
2022-09-03T07:47:50.255Z,25.06
2022-09-03T07:50:19.613Z,25.24
2022-09-03T07:52:48.176Z,25.23
2022-09-03T07:55:17.064Z,25.41
2022-09-03T07:57:45.311Z,25.55
2022-09-03T08:00:16.110Z,25.51
2022-09-03T08:02:48.016Z,25.72
2022-09-03T08:05:19.420Z,25.80
2022-09-03T08:07:48.640Z,25.76
2022-09-03T08:10:16.776Z,25.56
2022-09-03T08:12:45.578Z,25.84
2022-09-03T08:15:14.524Z,26.15
2022-09-03T08:17:45.340Z,26.05
2022-09-03T08:20:14.215Z,26.27
2022-09-03T08:22:43.485Z,26.22
2022-09-03T08:25:13.944Z,26.58
2022-09-03T08:27:45.888Z,26.80
2022-09-03T08:30:14.909Z,26.73
2022-09-03T08:32:44.117Z,27.02
2022-09-03T08:35:13.672Z,27.26
2022-09-03T08:37:42.342Z,27.34
2022-09-03T08:40:12.567Z,27.38
2022-09-03T08:43:06.897Z,27.46
2022-09-03T08:45:37.429Z,27.67
2022-09-03T08:48:14.368Z,27.76
2022-09-03T08:50:47.730Z,27.61
2022-09-03T08:53:52.425Z,27.65
2022-09-03T09:01:12.089Z,27.36
2022-09-03T09:03:59.580Z,27.27
2022-09-03T09:06:45.840Z,27.50
2022-09-03T09:09:55.517Z,27.63
2022-09-03T09:12:45.644Z,27.75
2022-09-03T09:15:43.706Z,27.99
2022-09-03T09:18:50.085Z,28.27
2022-09-03T09:21:27.863Z,28.32
2022-09-03T09:24:04.044Z,28.46
2022-09-03T09:26:33.949Z,28.57
2022-09-03T09:29:11.739Z,28.70
2022-09-03T09:31:55.785Z,28.79
2022-09-03T09:34:27.577Z,28.95
2022-09-03T09:36:57.010Z,28.99
2022-09-03T09:39:25.472Z,29.22
2022-09-03T09:42:09.812Z,29.22
2022-09-03T09:50:41.961Z,29.58
2022-09-03T09:53:15.757Z,29.06
2022-09-03T09:56:03.218Z,29.13
2022-09-03T09:58:35.035Z,28.95
2022-09-03T10:01:15.419Z,28.72
2022-09-03T10:03:57.210Z,28.78
2022-09-03T10:06:51.237Z,28.53
2022-09-03T10:09:30.885Z,28.58
2022-09-03T10:12:11.383Z,28.44
2022-09-03T10:15:20.979Z,28.77
2022-09-03T10:18:14.656Z,28.81
2022-09-03T10:21:05.288Z,28.80
2022-09-03T10:23:56.787Z,28.75
2022-09-03T10:26:35.979Z,28.75
2022-09-03T10:29:06.179Z,28.59
2022-09-03T10:31:54.359Z,28.51
2022-09-03T10:34:56.141Z,28.55
2022-09-03T10:38:09.491Z,28.35
2022-09-03T10:40:37.898Z,28.47
2022-09-03T10:43:47.985Z,28.42
2022-09-03T10:46:26.782Z,28.55
2022-09-03T10:49:11.131Z,28.53
2022-09-03T10:52:11.758Z,28.69
2022-09-03T10:54:39.560Z,28.75
2022-09-03T10:57:49.990Z,28.79
2022-09-03T11:00:19.900Z,28.59
2022-09-03T11:03:21.389Z,28.68
2022-09-03T11:05:52.258Z,28.70
2022-09-03T11:08:36.796Z,28.75
2022-09-03T11:11:15.709Z,28.45
2022-09-03T11:13:54.590Z,28.24
2022-09-03T11:16:31.553Z,28.25
2022-09-03T11:19:11.599Z,28.00
2022-09-03T11:21:44.427Z,28.23
2022-09-03T11:24:27.498Z,28.21
2022-09-03T11:27:01.147Z,28.17
2022-09-03T11:29:52.482Z,28.28
2022-09-03T11:32:36.705Z,28.28
2022-09-03T11:35:15.431Z,28.34
2022-09-03T11:38:21.663Z,28.24
2022-09-03T11:41:15.984Z,28.02
2022-09-03T11:43:44.514Z,27.98
2022-09-03T11:46:14.897Z,27.89
2022-09-03T11:48:47.181Z,27.87
2022-09-03T11:51:44.305Z,27.84
2022-09-03T11:54:21.134Z,27.66
2022-09-03T11:56:50.920Z,27.64
2022-09-03T11:59:24.185Z,27.55
2022-09-03T12:02:01.738Z,27.50
2022-09-03T12:04:41.130Z,27.40
2022-09-03T12:07:28.142Z,27.28
2022-09-03T12:10:28.419Z,27.29
2022-09-03T12:13:19.021Z,27.34
2022-09-03T12:16:05.949Z,27.23
2022-09-03T12:18:36.332Z,27.27
2022-09-03T12:21:08.728Z,27.19
2022-09-03T12:23:45.774Z,26.99
2022-09-03T12:26:20.229Z,27.08
2022-09-03T12:28:52.754Z,27.13
2022-09-03T12:31:25.818Z,27.03
2022-09-03T12:33:59.497Z,26.89
2022-09-03T12:36:54.374Z,26.93
2022-09-03T12:42:27.463Z,26.90
2022-09-03T12:45:12.932Z,26.75
2022-09-03T12:47:43.404Z,26.81
2022-09-03T12:50:19.712Z,26.73
2022-09-03T12:52:53.736Z,26.69
2022-09-03T12:55:47.448Z,26.66
2022-09-03T12:58:25.930Z,26.55
2022-09-03T13:01:13.373Z,26.50
2022-09-03T13:03:51.064Z,26.48
2022-09-03T13:06:23.499Z,26.45
2022-09-03T13:09:00.376Z,26.42
2022-09-03T13:11:33.555Z,26.38
2022-09-03T13:14:10.520Z,26.39
2022-09-03T13:17:18.508Z,26.24
2022-09-03T13:20:17.749Z,26.03
2022-09-03T13:23:13.888Z,26.01
2022-09-03T13:26:00.739Z,26.03
2022-09-03T13:28:47.696Z,25.97
2022-09-03T13:31:48.709Z,26.00
2022-09-03T13:34:40.915Z,25.94
2022-09-03T13:37:32.604Z,26.01
2022-09-03T13:40:20.027Z,26.03
2022-09-03T13:42:58.122Z,25.95
2022-09-03T13:45:43.270Z,25.98
2022-09-03T13:48:44.318Z,25.88
2022-09-03T13:51:38.004Z,25.93
2022-09-03T13:54:48.097Z,25.89
2022-09-03T13:57:39.907Z,25.88
2022-09-03T14:00:15.536Z,25.96
2022-09-03T14:03:18.518Z,25.98
2022-09-03T14:06:26.539Z,25.93
2022-09-03T14:09:34.671Z,25.91
2022-09-03T14:12:28.017Z,25.96
2022-09-03T14:15:21.822Z,25.91
2022-09-03T14:18:33.450Z,25.96
2022-09-03T14:21:29.730Z,25.82
2022-09-03T14:24:49.520Z,25.92
2022-09-03T14:27:44.250Z,25.75
2022-09-03T14:30:44.652Z,25.72
2022-09-03T14:34:03.824Z,25.74
2022-09-03T14:36:37.797Z,25.67
2022-09-03T14:39:43.157Z,25.65
2022-09-03T14:42:55.504Z,25.52
2022-09-03T14:45:52.198Z,25.44
2022-09-03T14:48:46.208Z,25.51
2022-09-03T14:51:52.861Z,25.36
2022-09-03T14:54:59.804Z,25.41
2022-09-03T14:57:28.411Z,25.35
2022-09-03T15:00:33.140Z,25.34
2022-09-03T15:03:24.209Z,25.31
2022-09-03T15:06:20.472Z,25.25
2022-09-03T15:09:39.815Z,25.24
2022-09-03T15:13:07.194Z,25.10
2022-09-03T15:15:49.349Z,25.23
2022-09-03T15:19:16.960Z,25.16
2022-09-03T15:22:12.732Z,25.09
2022-09-03T15:25:22.521Z,25.01
2022-09-03T15:27:54.551Z,25.04
2022-09-03T15:30:23.867Z,24.98
2022-09-03T15:33:03.730Z,24.97
2022-09-03T15:36:18.048Z,24.99
2022-09-03T15:39:05.965Z,24.97
2022-09-03T15:41:57.643Z,24.99
2022-09-03T15:44:37.950Z,24.83
2022-09-03T15:47:15.382Z,24.91
2022-09-03T15:49:52.533Z,24.77
2022-09-03T15:52:59.554Z,24.66
2022-09-03T15:55:41.080Z,24.62
2022-09-03T15:58:31.576Z,24.56
2022-09-03T16:01:11.655Z,24.42
2022-09-03T16:04:14.219Z,24.17
2022-09-03T16:06:56.901Z,23.99
2022-09-03T16:09:33.952Z,24.14
2022-09-03T16:12:21.712Z,24.04
2022-09-03T16:15:04.036Z,24.06
2022-09-03T16:17:43.844Z,24.20
2022-09-03T16:20:24.021Z,24.09
2022-09-03T16:23:01.263Z,24.20
2022-09-03T16:25:45.499Z,24.07
2022-09-03T16:28:19.653Z,24.14
2022-09-03T16:31:15.955Z,24.06
2022-09-03T16:34:22.984Z,24.18
2022-09-03T16:37:30.654Z,24.19
2022-09-03T16:40:29.039Z,24.07
2022-09-03T16:43:40.739Z,24.06
2022-09-03T16:46:42.031Z,24.09
2022-09-03T16:49:52.002Z,23.98
2022-09-03T16:52:47.272Z,23.84
2022-09-03T16:55:35.252Z,23.92
2022-09-03T16:58:27.462Z,23.77
2022-09-03T17:01:27.809Z,23.77
2022-09-03T17:04:34.400Z,23.71
2022-09-03T17:07:53.483Z,23.54
2022-09-03T17:10:40.408Z,23.39
2022-09-03T17:13:11.043Z,23.25
2022-09-03T17:16:23.610Z,23.45
2022-09-03T17:19:18.276Z,23.45
2022-09-03T17:22:25.437Z,23.36
2022-09-03T17:25:07.845Z,23.32
2022-09-03T17:27:52.175Z,23.22
2022-09-03T17:30:44.534Z,23.13
2022-09-03T17:33:41.636Z,22.86
2022-09-03T17:36:23.175Z,22.75
2022-09-03T17:39:44.406Z,22.75
2022-09-03T17:42:33.876Z,22.27
2022-09-03T17:45:40.435Z,22.02
2022-09-03T17:49:01.509Z,21.86
2022-09-03T17:51:37.222Z,21.64
2022-09-03T17:54:23.866Z,21.62
2022-09-03T17:57:03.040Z,21.29
2022-09-03T18:00:07.274Z,20.69
2022-09-03T18:02:40.525Z,20.01
2022-09-03T18:05:47.151Z,20.13
2022-09-03T18:08:36.961Z,20.34
2022-09-03T18:11:19.725Z,19.91
2022-09-03T18:13:56.316Z,19.62
2022-09-03T18:16:36.125Z,19.19
2022-09-03T18:19:32.803Z,19.21
2022-09-03T18:22:25.450Z,19.13
2022-09-03T18:25:19.371Z,19.42
2022-09-03T18:28:18.359Z,19.52
2022-09-03T18:31:05.575Z,19.34
2022-09-03T18:33:54.607Z,18.88
2022-09-03T18:36:43.390Z,18.60
2022-09-03T18:39:46.636Z,18.62
2022-09-03T18:43:06.647Z,18.76
2022-09-03T18:50:30.170Z,17.67
2022-09-03T18:53:53.460Z,17.69
2022-09-03T18:56:40.107Z,17.74
2022-09-03T18:59:27.833Z,17.61
2022-09-03T19:02:16.649Z,17.52
2022-09-03T19:05:53.364Z,17.34
2022-09-03T19:08:53.588Z,17.26
2022-09-03T19:11:55.698Z,17.15
2022-09-03T19:15:00.889Z,17.08
2022-09-03T19:18:13.357Z,17.16
2022-09-03T19:21:11.637Z,17.13
2022-09-03T19:23:58.696Z,17.11
2022-09-03T19:27:23.612Z,17.45
2022-09-03T19:30:55.342Z,17.65
2022-09-03T19:33:51.299Z,17.92
2022-09-03T19:37:15.519Z,17.94
2022-09-03T19:40:27.012Z,18.04
2022-09-03T19:43:39.705Z,17.94
2022-09-03T19:46:34.684Z,17.69
2022-09-03T19:49:38.657Z,17.79
2022-09-03T19:53:09.393Z,17.56
2022-09-03T19:56:06.607Z,17.32
2022-09-03T19:58:58.553Z,16.90
2022-09-03T20:01:52.227Z,16.76
2022-09-03T20:04:41.994Z,16.69
2022-09-03T20:07:29.606Z,17.05
2022-09-03T20:10:22.857Z,17.24
2022-09-03T20:12:54.402Z,17.26
2022-09-03T20:15:27.741Z,16.93
2022-09-03T20:18:26.586Z,16.66
2022-09-03T20:21:19.365Z,16.61
2022-09-03T20:23:58.731Z,16.56
2022-09-03T20:26:38.656Z,16.29
2022-09-03T20:29:25.262Z,16.17
2022-09-03T20:31:59.080Z,15.94
2022-09-03T20:34:49.297Z,16.17
2022-09-03T20:37:58.099Z,16.63
2022-09-03T20:40:47.351Z,16.31
2022-09-03T20:43:37.966Z,16.10
2022-09-03T20:46:26.106Z,16.48
2022-09-03T20:49:13.722Z,16.32
2022-09-03T20:52:09.747Z,16.35
2022-09-03T20:54:50.645Z,17.27
2022-09-03T20:57:49.727Z,17.03
2022-09-03T21:00:21.416Z,16.81
2022-09-03T21:03:26.525Z,17.07
2022-09-03T21:06:31.187Z,17.06
2022-09-03T21:09:06.371Z,16.54
2022-09-03T21:11:55.510Z,16.55
2022-09-03T21:14:40.718Z,16.53
2022-09-03T21:17:55.593Z,16.40
2022-09-03T21:20:44.357Z,17.37
2022-09-03T21:23:24.819Z,17.61
2022-09-03T21:26:06.628Z,17.08
2022-09-03T21:28:51.121Z,17.15
2022-09-03T21:31:32.109Z,16.98
2022-09-03T21:34:34.003Z,16.71
2022-09-03T21:37:04.975Z,16.73
2022-09-03T21:39:47.727Z,16.49
2022-09-03T21:42:31.276Z,16.29
2022-09-03T21:45:18.719Z,17.08
2022-09-03T21:47:58.555Z,17.09
2022-09-03T21:50:34.192Z,16.96
2022-09-03T21:53:45.150Z,17.28
2022-09-03T21:56:34.333Z,17.18
2022-09-03T21:59:39.642Z,17.31
2022-09-03T22:02:21.980Z,17.77
2022-09-03T22:04:51.004Z,17.70
2022-09-03T22:07:53.615Z,17.38
2022-09-03T22:11:08.022Z,17.25
2022-09-03T22:14:05.990Z,17.20
2022-09-03T22:16:42.659Z,17.19
2022-09-03T22:19:11.631Z,17.56
2022-09-03T22:22:00.166Z,17.09
2022-09-03T22:24:49.924Z,17.43
2022-09-03T22:27:44.564Z,16.93
2022-09-03T22:30:14.924Z,17.27
2022-09-03T22:33:03.778Z,17.44
2022-09-03T22:35:54.213Z,17.33
2022-09-03T22:38:46.756Z,17.93
2022-09-03T22:41:47.990Z,17.69
2022-09-03T22:44:30.966Z,17.29
2022-09-03T22:47:08.273Z,17.76
2022-09-03T22:49:59.803Z,17.81
2022-09-03T22:52:45.803Z,17.87
2022-09-03T22:55:23.477Z,17.62
2022-09-03T22:58:26.345Z,17.72
2022-09-03T23:01:07.987Z,17.50
2022-09-03T23:03:42.444Z,17.24
2022-09-03T23:06:20.427Z,17.62
2022-09-03T23:08:54.742Z,17.64
2022-09-03T23:11:47.802Z,16.81
2022-09-03T23:14:21.623Z,17.27
2022-09-03T23:16:54.821Z,17.15
2022-09-03T23:19:43.914Z,16.35
2022-09-03T23:22:14.580Z,17.01
2022-09-03T23:24:58.477Z,17.45
2022-09-03T23:27:35.328Z,17.21
2022-09-03T23:30:03.597Z,17.47
2022-09-03T23:32:33.199Z,17.16
2022-09-03T23:35:07.246Z,17.53
2022-09-03T23:38:04.363Z,16.99
2022-09-03T23:40:52.144Z,16.81
2022-09-03T23:43:52.738Z,16.91
2022-09-03T23:46:23.340Z,16.70
2022-09-03T23:48:59.881Z,16.92
2022-09-03T23:51:30.457Z,17.15
2022-09-03T23:54:20.161Z,17.01
2022-09-03T23:57:04.419Z,16.97
